createdAt,value
2022-12-06T00:01:33.980Z,75.60
2022-12-06T00:04:03.533Z,75.58
2022-12-06T00:06:32.424Z,75.66
2022-12-06T00:09:00.182Z,75.89
2022-12-06T00:11:29.735Z,76.09
2022-12-06T00:14:01.505Z,76.08
2022-12-06T00:16:29.593Z,76.09
2022-12-06T00:18:59.049Z,76.32
2022-12-06T00:21:28.872Z,76.11
2022-12-06T00:24:01.762Z,76.29
2022-12-06T00:26:29.705Z,76.54
2022-12-06T00:29:00.541Z,76.54
2022-12-06T00:31:28.525Z,76.64
2022-12-06T00:33:56.296Z,76.87
2022-12-06T00:36:25.780Z,76.98
2022-12-06T00:38:54.223Z,77.04
2022-12-06T00:41:25.462Z,76.93
2022-12-06T00:43:53.280Z,76.95
2022-12-06T00:46:25.816Z,77.27
2022-12-06T00:48:54.391Z,77.46
2022-12-06T00:51:22.172Z,77.44
2022-12-06T00:53:49.963Z,77.55
2022-12-06T00:56:17.786Z,77.35
2022-12-06T00:58:45.626Z,77.39
2022-12-06T01:01:13.222Z,77.49
2022-12-06T01:03:40.989Z,77.80
2022-12-06T01:06:10.490Z,78.02
2022-12-06T01:08:38.497Z,78.09
2022-12-06T01:11:06.141Z,77.90
2022-12-06T01:13:33.973Z,77.95
2022-12-06T01:16:11.662Z,78.13
2022-12-06T01:18:39.700Z,78.31
2022-12-06T01:21:08.538Z,78.11
2022-12-06T01:23:37.943Z,78.08
2022-12-06T01:26:06.188Z,78.59
2022-12-06T01:28:34.143Z,78.51
2022-12-06T01:31:07.030Z,78.61
2022-12-06T01:33:34.874Z,78.34
2022-12-06T01:36:02.414Z,78.61
2022-12-06T01:38:30.241Z,78.50
2022-12-06T01:40:57.801Z,78.92
2022-12-06T01:43:38.851Z,79.59
2022-12-06T01:46:12.565Z,79.44
2022-12-06T01:48:40.133Z,79.55
2022-12-06T01:51:09.612Z,79.49
2022-12-06T01:53:37.830Z,79.64
2022-12-06T01:56:05.584Z,79.52
2022-12-06T01:58:37.120Z,79.94
2022-12-06T02:01:05.503Z,79.73
2022-12-06T02:03:33.670Z,80.09
2022-12-06T02:06:05.157Z,80.10
2022-12-06T02:08:32.893Z,80.28
2022-12-06T02:11:01.993Z,80.28
2022-12-06T02:13:30.641Z,80.18
2022-12-06T02:16:16.887Z,80.12
2022-12-06T02:19:11.021Z,79.75
2022-12-06T02:22:23.642Z,79.90
2022-12-06T02:25:20.241Z,79.76
2022-12-06T02:27:54.652Z,80.18
2022-12-06T02:30:31.320Z,80.18
2022-12-06T02:33:09.815Z,80.14
2022-12-06T02:35:52.932Z,80.12
2022-12-06T02:38:44.252Z,80.07
2022-12-06T02:41:29.986Z,80.14
2022-12-06T02:44:00.322Z,80.01
2022-12-06T02:46:30.148Z,80.26
2022-12-06T02:48:59.436Z,80.08
2022-12-06T02:51:27.099Z,79.85
2022-12-06T02:53:54.699Z,80.01
2022-12-06T02:56:22.223Z,80.38
2022-12-06T02:58:49.793Z,80.39
2022-12-06T03:01:31.203Z,80.41
2022-12-06T03:04:31.852Z,80.58
2022-12-06T03:07:09.823Z,80.49
2022-12-06T03:10:11.613Z,80.55
2022-12-06T03:12:45.967Z,80.40
2022-12-06T03:15:16.061Z,80.47
2022-12-06T03:18:04.402Z,80.85
2022-12-06T03:20:34.461Z,80.54
2022-12-06T03:23:04.265Z,80.75
2022-12-06T03:25:33.863Z,80.57
2022-12-06T03:28:01.566Z,80.79
2022-12-06T03:30:30.985Z,81.05
2022-12-06T03:32:58.676Z,80.99
2022-12-06T03:35:27.418Z,80.83
2022-12-06T03:38:03.413Z,80.84
2022-12-06T03:40:32.549Z,80.57
2022-12-06T03:43:00.320Z,80.74
2022-12-06T03:45:31.901Z,80.74
2022-12-06T03:48:13.801Z,80.53
2022-12-06T03:50:47.542Z,81.24
2022-12-06T03:53:17.827Z,81.04
2022-12-06T03:55:45.954Z,81.32
2022-12-06T03:58:13.553Z,80.99
2022-12-06T04:00:41.090Z,80.47
2022-12-06T04:03:08.837Z,80.49
2022-12-06T04:05:36.745Z,80.82
2022-12-06T04:08:04.720Z,80.73
2022-12-06T04:10:32.607Z,80.94
2022-12-06T04:13:03.097Z,80.69
2022-12-06T04:15:37.993Z,80.73
2022-12-06T04:18:10.895Z,80.61
2022-12-06T04:21:03.435Z,80.37
2022-12-06T04:23:33.121Z,80.30
2022-12-06T04:26:03.961Z,80.46
2022-12-06T04:28:50.310Z,80.42
2022-12-06T04:31:36.388Z,80.41
2022-12-06T04:34:22.534Z,79.33
2022-12-06T04:37:08.588Z,79.33
2022-12-06T04:39:36.306Z,79.37
2022-12-06T04:42:22.250Z,79.39
2022-12-06T04:44:49.884Z,79.34
2022-12-06T04:47:17.489Z,79.15
2022-12-06T04:49:45.082Z,79.01
2022-12-06T04:52:13.015Z,79.37
2022-12-06T04:54:40.780Z,79.34
2022-12-06T04:57:14.130Z,79.39
2022-12-06T04:59:43.156Z,79.31
2022-12-06T05:02:12.568Z,79.32
2022-12-06T05:04:40.215Z,78.83
2022-12-06T05:07:08.113Z,79.07
2022-12-06T05:09:35.673Z,78.94
2022-12-06T05:12:03.293Z,79.05
2022-12-06T05:14:30.942Z,78.53
2022-12-06T05:16:59.125Z,79.02
2022-12-06T05:19:27.496Z,78.91
2022-12-06T05:21:55.484Z,79.01
2022-12-06T05:24:23.132Z,78.94
2022-12-06T05:26:50.839Z,78.51
2022-12-06T05:29:20.073Z,78.25
2022-12-06T05:31:47.799Z,78.50
2022-12-06T05:34:15.460Z,78.26
2022-12-06T05:36:45.570Z,77.91
2022-12-06T05:39:13.258Z,77.76
2022-12-06T05:41:40.940Z,77.77
2022-12-06T05:44:12.835Z,77.44
2022-12-06T05:46:40.412Z,77.52
2022-12-06T05:49:08.170Z,77.48
2022-12-06T05:51:35.870Z,76.92
2022-12-06T05:54:05.347Z,76.77
2022-12-06T05:56:33.523Z,76.33
2022-12-06T05:59:01.365Z,76.18
2022-12-06T06:01:29.141Z,75.83
2022-12-06T06:03:56.902Z,75.39
2022-12-06T06:06:25.064Z,74.88
2022-12-06T06:08:52.807Z,74.89
2022-12-06T06:11:26.566Z,74.56
2022-12-06T06:13:55.779Z,74.93
2022-12-06T06:16:23.837Z,74.40
2022-12-06T06:18:51.556Z,74.08
2022-12-06T06:21:19.050Z,73.66
2022-12-06T06:23:46.637Z,73.74
2022-12-06T06:26:14.194Z,73.16
2022-12-06T06:28:41.752Z,72.73
2022-12-06T06:31:09.747Z,72.64
2022-12-06T06:33:37.403Z,72.88
2022-12-06T06:36:05.378Z,72.77
2022-12-06T06:38:33.061Z,72.24
2022-12-06T06:41:04.403Z,72.39
2022-12-06T06:43:32.242Z,71.48
2022-12-06T06:46:01.468Z,70.82
2022-12-06T06:48:30.900Z,70.87
2022-12-06T06:51:06.382Z,69.91
2022-12-06T06:53:34.149Z,69.54
2022-12-06T06:56:02.834Z,69.89
2022-12-06T06:58:30.685Z,69.10
2022-12-06T07:00:59.827Z,69.04
2022-12-06T07:03:27.825Z,68.96
2022-12-06T07:05:56.761Z,68.96
2022-12-06T07:08:24.892Z,68.57
2022-12-06T07:10:52.489Z,67.28
2022-12-06T07:13:20.936Z,67.71
2022-12-06T07:15:49.138Z,67.93
2022-12-06T07:18:17.564Z,67.53
2022-12-06T07:20:45.912Z,67.02
2022-12-06T07:23:13.957Z,65.24
2022-12-06T07:25:41.587Z,64.35
2022-12-06T07:28:09.169Z,63.72
2022-12-06T07:30:36.994Z,63.52
2022-12-06T07:33:04.638Z,63.53
2022-12-06T07:36:03.769Z,63.95
2022-12-06T07:38:20.168Z,62.13
2022-12-06T07:41:04.128Z,62.19
2022-12-06T07:43:50.985Z,60.59
2022-12-06T07:46:18.686Z,60.38
2022-12-06T07:48:46.309Z,59.69
2022-12-06T07:51:14.049Z,59.70
2022-12-06T07:53:41.695Z,58.91
2022-12-06T07:56:09.513Z,58.51
2022-12-06T07:58:37.129Z,57.76
2022-12-06T08:01:05.367Z,57.45
2022-12-06T08:03:33.054Z,57.63
2022-12-06T08:06:00.709Z,57.15
2022-12-06T08:08:29.237Z,56.00
2022-12-06T08:11:04.857Z,56.47
2022-12-06T08:13:33.420Z,54.58
2022-12-06T08:16:05.982Z,54.50
2022-12-06T08:18:33.632Z,54.98
2022-12-06T08:21:01.372Z,54.60
2022-12-06T08:23:33.883Z,53.89
2022-12-06T08:26:13.913Z,54.39
2022-12-06T08:28:43.473Z,52.84
2022-12-06T08:31:19.946Z,53.15
2022-12-06T08:33:48.073Z,52.54
2022-12-06T08:36:17.628Z,51.87
2022-12-06T08:38:46.570Z,50.95
2022-12-06T08:41:32.773Z,51.17
2022-12-06T08:44:01.125Z,51.39
2022-12-06T08:46:29.222Z,52.16
2022-12-06T08:48:56.936Z,51.71
2022-12-06T08:51:24.509Z,50.62
2022-12-06T08:53:53.085Z,50.47
2022-12-06T08:56:20.963Z,50.11
2022-12-06T08:58:48.900Z,49.58
2022-12-06T09:01:19.325Z,49.18
2022-12-06T09:03:47.127Z,49.37
2022-12-06T09:06:15.144Z,49.57
2022-12-06T09:08:42.777Z,48.06
2022-12-06T09:11:10.539Z,47.66
2022-12-06T09:13:38.836Z,47.70
2022-12-06T09:16:10.887Z,47.92
2022-12-06T09:18:38.637Z,47.84
2022-12-06T09:21:10.157Z,48.52
2022-12-06T09:23:39.492Z,47.18
2022-12-06T09:26:07.645Z,47.07
2022-12-06T09:28:35.979Z,46.71
2022-12-06T09:31:04.173Z,47.19
2022-12-06T09:33:32.375Z,46.41
2022-12-06T09:36:01.242Z,46.42
2022-12-06T09:38:29.628Z,46.66
2022-12-06T09:41:03.842Z,46.24
2022-12-06T09:43:59.442Z,45.98
2022-12-06T09:46:50.336Z,45.29
2022-12-06T09:49:31.031Z,46.66
2022-12-06T09:52:19.973Z,46.22
2022-12-06T09:55:00.298Z,46.01
2022-12-06T09:57:51.903Z,45.90
2022-12-06T10:01:00.745Z,45.06
2022-12-06T10:03:47.536Z,45.38
2022-12-06T10:06:16.873Z,45.57
2022-12-06T10:08:54.909Z,45.42
2022-12-06T10:11:49.188Z,45.06
2022-12-06T10:14:35.577Z,45.18
2022-12-06T10:17:18.506Z,44.94
2022-12-06T10:19:54.385Z,44.97
2022-12-06T10:22:44.273Z,45.72
2022-12-06T10:25:23.911Z,45.10
2022-12-06T10:28:08.985Z,45.15
2022-12-06T10:30:39.098Z,44.87
2022-12-06T10:33:17.881Z,44.59
2022-12-06T10:35:59.254Z,45.44
2022-12-06T10:38:32.886Z,45.08
2022-12-06T10:41:15.765Z,44.29
2022-12-06T10:43:43.301Z,44.64
2022-12-06T10:46:35.632Z,44.91
2022-12-06T10:49:23.580Z,44.54
2022-12-06T10:51:54.797Z,44.55
2022-12-06T10:54:24.027Z,44.20
2022-12-06T10:56:52.875Z,44.65
2022-12-06T11:00:03.731Z,44.44
2022-12-06T11:02:39.264Z,44.71
2022-12-06T11:05:15.238Z,44.27
2022-12-06T11:07:44.037Z,44.02
2022-12-06T11:10:22.469Z,43.93
2022-12-06T11:12:59.657Z,44.29
2022-12-06T11:15:30.063Z,43.90
2022-12-06T11:18:11.746Z,44.20
2022-12-06T11:20:45.122Z,43.65
2022-12-06T11:23:26.238Z,42.54
2022-12-06T11:26:21.363Z,42.58
2022-12-06T11:29:04.324Z,42.54
2022-12-06T11:31:35.217Z,42.60
2022-12-06T11:34:03.207Z,42.41
2022-12-06T11:36:31.015Z,41.52
2022-12-06T11:38:58.758Z,41.90
2022-12-06T11:41:31.550Z,42.15
2022-12-06T11:43:59.321Z,41.73
2022-12-06T11:46:26.974Z,41.79
2022-12-06T11:49:03.811Z,41.00
2022-12-06T11:51:31.690Z,40.29
2022-12-06T11:54:24.836Z,40.44
2022-12-06T11:56:52.384Z,40.39
2022-12-06T11:59:28.853Z,40.13
2022-12-06T12:01:58.835Z,39.50
2022-12-06T12:04:31.703Z,39.72
2022-12-06T12:07:20.629Z,40.09
2022-12-06T12:10:00.415Z,39.47
2022-12-06T12:12:55.796Z,39.04
2022-12-06T12:15:23.344Z,38.83
2022-12-06T12:17:52.706Z,39.04
2022-12-06T12:20:26.469Z,38.30
2022-12-06T12:23:06.504Z,37.13
2022-12-06T12:25:35.051Z,38.01
2022-12-06T12:28:04.292Z,38.13
2022-12-06T12:30:39.806Z,37.34
2022-12-06T12:33:07.301Z,37.30
2022-12-06T12:36:02.885Z,37.24
2022-12-06T12:38:42.783Z,36.90
2022-12-06T12:41:34.854Z,37.20
2022-12-06T12:44:36.014Z,37.69
2022-12-06T12:47:02.857Z,37.65
2022-12-06T12:49:31.737Z,37.81
2022-12-06T12:51:59.663Z,36.88
2022-12-06T12:54:32.977Z,37.09
2022-12-06T12:57:01.825Z,37.41
2022-12-06T12:59:35.974Z,38.16
2022-12-06T13:02:23.388Z,38.42
2022-12-06T13:05:05.070Z,38.32
2022-12-06T13:07:41.043Z,38.44
2022-12-06T13:10:52.844Z,39.23
2022-12-06T13:13:56.602Z,38.97
2022-12-06T13:16:32.965Z,39.69
2022-12-06T13:19:00.734Z,40.44
2022-12-06T13:21:36.271Z,40.43
2022-12-06T13:24:12.885Z,40.83
2022-12-06T13:26:43.462Z,40.39
2022-12-06T13:29:34.243Z,40.75
2022-12-06T13:32:32.850Z,40.91
2022-12-06T13:35:04.639Z,40.55
2022-12-06T13:37:44.059Z,41.26
2022-12-06T13:40:34.973Z,41.01
2022-12-06T13:43:07.210Z,41.94
2022-12-06T13:45:38.237Z,42.43
2022-12-06T13:48:25.853Z,42.71
2022-12-06T13:50:56.316Z,43.20
2022-12-06T13:53:25.535Z,43.70
2022-12-06T13:56:02.393Z,44.18
2022-12-06T13:58:30.171Z,43.67
2022-12-06T14:00:57.946Z,43.83
2022-12-06T14:03:25.492Z,43.64
2022-12-06T14:06:07.538Z,43.98
2022-12-06T14:08:47.837Z,44.35
2022-12-06T14:11:39.679Z,44.43
2022-12-06T14:14:18.618Z,44.76
2022-12-06T14:16:51.680Z,45.42
2022-12-06T14:19:23.174Z,45.40
2022-12-06T14:21:59.134Z,45.74
2022-12-06T14:24:33.674Z,45.93
2022-12-06T14:27:14.609Z,45.53
2022-12-06T14:29:43.047Z,45.52
2022-12-06T14:32:10.746Z,45.39
2022-12-06T14:34:38.399Z,45.72
2022-12-06T14:37:20.967Z,46.21
2022-12-06T14:39:52.930Z,45.92
2022-12-06T14:42:46.763Z,46.26
2022-12-06T14:45:15.803Z,46.03
2022-12-06T14:47:44.514Z,45.81
2022-12-06T14:50:32.577Z,45.67
2022-12-06T14:53:14.172Z,45.20
2022-12-06T14:55:57.945Z,45.31
2022-12-06T14:58:35.773Z,45.54
2022-12-06T15:01:06.040Z,45.56
2022-12-06T15:03:37.071Z,45.14
2022-12-06T15:06:19.236Z,45.80
2022-12-06T15:09:38.436Z,45.59
2022-12-06T15:12:41.481Z,45.19
2022-12-06T15:15:34.515Z,45.29
2022-12-06T15:18:29.069Z,44.97
2022-12-06T15:20:56.684Z,44.92
2022-12-06T15:23:36.188Z,44.89
2022-12-06T15:26:04.593Z,44.61
2022-12-06T15:28:32.232Z,44.23
2022-12-06T15:30:59.910Z,44.60
2022-12-06T15:33:27.766Z,44.24
2022-12-06T15:35:55.406Z,44.22
2022-12-06T15:38:23.215Z,44.32
2022-12-06T15:40:51.407Z,44.16
2022-12-06T15:43:29.880Z,44.46
2022-12-06T15:46:01.604Z,44.56
2022-12-06T15:48:30.320Z,44.40
2022-12-06T15:50:58.527Z,44.70
2022-12-06T15:53:26.642Z,45.20
2022-12-06T15:55:54.638Z,45.45
2022-12-06T15:58:22.954Z,46.03
2022-12-06T16:00:50.976Z,46.67
2022-12-06T16:03:18.996Z,47.08
2022-12-06T16:05:46.780Z,47.58
2022-12-06T16:08:14.555Z,47.91
2022-12-06T16:11:10.954Z,48.22
2022-12-06T16:13:31.627Z,49.08
2022-12-06T16:15:59.546Z,49.93
2022-12-06T16:18:27.401Z,50.20
2022-12-06T16:20:55.064Z,50.14
2022-12-06T16:24:11.960Z,50.87
2022-12-06T16:26:38.478Z,51.33
2022-12-06T16:29:07.149Z,51.65
2022-12-06T16:31:38.421Z,51.93
2022-12-06T16:34:07.155Z,51.90
2022-12-06T16:36:35.243Z,51.75
2022-12-06T16:39:04.748Z,51.90
2022-12-06T16:41:33.977Z,51.90
2022-12-06T16:44:01.930Z,52.41
2022-12-06T16:46:38.444Z,52.76
2022-12-06T16:49:37.314Z,52.66
2022-12-06T16:51:56.246Z,52.36
2022-12-06T16:54:23.836Z,52.52
2022-12-06T16:56:51.572Z,52.41
2022-12-06T16:59:19.275Z,52.30
2022-12-06T17:01:56.391Z,52.11
2022-12-06T17:04:26.171Z,52.56
2022-12-06T17:06:53.872Z,52.63
2022-12-06T17:09:21.505Z,52.75
2022-12-06T17:12:06.474Z,53.06
2022-12-06T17:14:36.150Z,53.13
2022-12-06T17:17:04.269Z,53.38
2022-12-06T17:19:33.378Z,54.13
2022-12-06T17:22:04.885Z,54.08
2022-12-06T17:24:33.503Z,54.36
2022-12-06T17:27:01.262Z,54.65
2022-12-06T17:29:29.010Z,54.41
2022-12-06T17:31:56.854Z,54.96
2022-12-06T17:34:26.009Z,54.73
2022-12-06T17:36:54.091Z,54.87
2022-12-06T17:39:24.370Z,55.24
2022-12-06T17:42:10.490Z,55.41
2022-12-06T17:44:39.966Z,55.07
2022-12-06T17:47:07.799Z,55.39
2022-12-06T17:49:36.371Z,55.87
2022-12-06T17:52:04.707Z,55.93
2022-12-06T17:54:32.466Z,56.03
2022-12-06T17:57:00.228Z,56.32
2022-12-06T17:59:30.415Z,56.83
2022-12-06T18:02:18.244Z,56.93
2022-12-06T18:04:47.576Z,57.35
2022-12-06T18:07:16.433Z,57.13
2022-12-06T18:09:44.236Z,57.26
2022-12-06T18:12:12.836Z,57.15
2022-12-06T18:14:40.486Z,57.33
2022-12-06T18:17:08.189Z,57.34
2022-12-06T18:19:36.006Z,57.55
2022-12-06T18:22:03.891Z,57.33
2022-12-06T18:24:36.108Z,57.24
2022-12-06T18:27:07.293Z,56.94
2022-12-06T18:29:35.097Z,56.88
2022-12-06T18:32:03.015Z,56.67
2022-12-06T18:34:31.181Z,56.79
2022-12-06T18:36:59.081Z,56.33
2022-12-06T18:39:28.312Z,56.30
2022-12-06T18:41:56.208Z,56.39
2022-12-06T18:44:24.282Z,56.10
2022-12-06T18:46:52.164Z,56.40
2022-12-06T18:49:20.138Z,56.13
2022-12-06T18:51:47.945Z,56.31
2022-12-06T18:54:15.793Z,56.78
2022-12-06T18:56:46.760Z,56.58
2022-12-06T18:59:14.418Z,56.37
2022-12-06T19:01:42.222Z,56.10
2022-12-06T19:04:16.612Z,56.03
2022-12-06T19:06:45.022Z,55.91
2022-12-06T19:09:15.033Z,56.02
2022-12-06T19:11:44.457Z,55.94
2022-12-06T19:14:12.290Z,55.82
2022-12-06T19:16:42.091Z,56.07
2022-12-06T19:19:16.153Z,55.73
2022-12-06T19:21:47.937Z,56.03
2022-12-06T19:24:17.556Z,56.19
2022-12-06T19:26:45.604Z,56.58
2022-12-06T19:29:13.988Z,56.70
2022-12-06T19:31:42.076Z,56.90
2022-12-06T19:34:24.148Z,57.03
2022-12-06T19:36:53.341Z,57.21
2022-12-06T19:39:21.092Z,57.77
2022-12-06T19:42:09.015Z,57.71
2022-12-06T19:44:36.635Z,58.17
2022-12-06T19:47:04.458Z,57.59
2022-12-06T19:49:32.367Z,57.63
2022-12-06T19:52:00.704Z,57.60
2022-12-06T19:54:30.252Z,57.25
2022-12-06T19:56:58.615Z,57.40
2022-12-06T19:59:28.219Z,57.67
2022-12-06T20:01:58.392Z,57.11
2022-12-06T20:04:30.661Z,57.38
2022-12-06T20:07:00.248Z,57.65
2022-12-06T20:09:29.186Z,57.61
2022-12-06T20:12:04.418Z,57.51
2022-12-06T20:14:42.030Z,57.41
2022-12-06T20:17:20.641Z,57.88
2022-12-06T20:19:51.504Z,57.91
2022-12-06T20:22:19.691Z,58.04
2022-12-06T20:24:59.357Z,57.89
2022-12-06T20:27:47.019Z,58.18
2022-12-06T20:30:15.379Z,57.91
2022-12-06T20:32:44.605Z,57.89
2022-12-06T20:35:12.498Z,57.69
2022-12-06T20:37:40.371Z,58.20
2022-12-06T20:40:08.832Z,57.99
2022-12-06T20:42:36.640Z,57.95
2022-12-06T20:45:05.855Z,58.11
2022-12-06T20:47:33.573Z,58.00
2022-12-06T20:50:01.571Z,58.14
2022-12-06T20:52:30.687Z,58.49
2022-12-06T20:54:58.530Z,58.06
2022-12-06T20:57:26.506Z,57.70
2022-12-06T20:59:55.304Z,57.87
2022-12-06T21:02:23.023Z,58.20
2022-12-06T21:04:51.747Z,58.33
2022-12-06T21:07:19.917Z,58.50
2022-12-06T21:09:47.791Z,58.84
2022-12-06T21:12:16.383Z,58.57
2022-12-06T21:14:44.665Z,58.99
2022-12-06T21:17:12.684Z,58.85
2022-12-06T21:19:40.692Z,58.92
2022-12-06T21:22:12.379Z,58.96
2022-12-06T21:24:40.201Z,58.67
2022-12-06T21:27:09.246Z,59.09
2022-12-06T21:29:39.173Z,58.98
2022-12-06T21:32:06.885Z,58.83
2022-12-06T21:34:34.767Z,58.52
2022-12-06T21:37:02.620Z,58.65
2022-12-06T21:39:30.602Z,58.86
2022-12-06T21:41:58.358Z,58.84
2022-12-06T21:44:26.201Z,59.18
2022-12-06T21:46:54.217Z,59.79
2022-12-06T21:49:22.117Z,59.86
2022-12-06T21:51:51.136Z,60.53
2022-12-06T21:54:21.491Z,60.20
2022-12-06T21:56:49.262Z,60.58
2022-12-06T21:59:24.204Z,60.42
2022-12-06T22:01:52.049Z,60.25
2022-12-06T22:04:20.407Z,60.49
2022-12-06T22:06:48.416Z,59.36
2022-12-06T22:09:16.207Z,59.00
2022-12-06T22:11:44.160Z,57.81
2022-12-06T22:14:12.205Z,57.50
2022-12-06T22:16:40.116Z,57.49
2022-12-06T22:19:07.952Z,57.33
2022-12-06T22:27:05.682Z,56.90
2022-12-06T22:29:33.611Z,56.95
2022-12-06T22:32:01.413Z,57.12
2022-12-06T22:34:29.722Z,56.59
2022-12-06T22:36:57.508Z,56.67
2022-12-06T22:39:25.172Z,56.82
2022-12-06T22:41:54.495Z,57.98
2022-12-06T22:44:22.295Z,57.77
2022-12-06T22:46:55.887Z,58.01
2022-12-06T22:49:25.018Z,58.39
2022-12-06T22:52:11.296Z,58.75
2022-12-06T22:54:39.008Z,59.48
2022-12-06T22:57:06.969Z,60.64
2022-12-06T23:00:12.041Z,61.09
2022-12-06T23:02:58.733Z,61.46
2022-12-06T23:05:26.472Z,61.95
2022-12-06T23:07:54.243Z,62.22
2022-12-06T23:10:22.267Z,62.91
2022-12-06T23:12:50.133Z,62.55
2022-12-06T23:15:18.029Z,63.22
2022-12-06T23:17:46.300Z,63.67
2022-12-06T23:20:51.591Z,63.40
2022-12-06T23:24:34.354Z,64.98
2022-12-06T23:27:35.747Z,65.18
2022-12-06T23:30:03.971Z,65.36
2022-12-06T23:32:32.673Z,66.44
2022-12-06T23:35:00.493Z,67.03
2022-12-06T23:37:29.371Z,66.84
2022-12-06T23:39:57.140Z,67.52
2022-12-06T23:42:26.029Z,68.02
2022-12-06T23:44:54.531Z,68.47
2022-12-06T23:47:22.330Z,68.51
2022-12-06T23:49:50.392Z,69.07
2022-12-06T23:52:18.456Z,68.66
2022-12-06T23:54:46.620Z,69.00
2022-12-06T23:57:17.128Z,68.53
2022-12-06T23:59:45.066Z,68.86
